sensor_id;sensor_type;location;lat;lon;timestamp;P1;durP1;ratioP1;P2;durP2;ratioP2
33266;SDS011;19638;49.080;11.896;2023-03-01T00:03:20;35.07;;;16.87;;
33266;SDS011;19638;49.080;11.896;2023-03-01T00:07:26;36.83;;;16.57;;
33266;SDS011;19638;49.080;11.896;2023-03-01T00:11:30;39.57;;;15.80;;
33266;SDS011;19638;49.080;11.896;2023-03-01T00:15:37;32.93;;;14.93;;
33266;SDS011;19638;49.080;11.896;2023-03-01T00:19:41;38.40;;;14.80;;
33266;SDS011;19638;49.080;11.896;2023-03-01T00:23:46;36.07;;;15.33;;
33266;SDS011;19638;49.080;11.896;2023-03-01T00:27:50;27.97;;;13.13;;
33266;SDS011;19638;49.080;11.896;2023-03-01T00:31:55;38.77;;;17.57;;
33266;SDS011;19638;49.080;11.896;2023-03-01T00:36:03;41.67;;;17.40;;
33266;SDS011;19638;49.080;11.896;2023-03-01T00:40:09;35.43;;;16.70;;
33266;SDS011;19638;49.080;11.896;2023-03-01T00:44:16;34.83;;;14.27;;
33266;SDS011;19638;49.080;11.896;2023-03-01T00:48:19;33.40;;;15.33;;
33266;SDS011;19638;49.080;11.896;2023-03-01T00:52:23;36.03;;;15.93;;
33266;SDS011;19638;49.080;11.896;2023-03-01T00:56:27;33.03;;;14.47;;
33266;SDS011;19638;49.080;11.896;2023-03-01T01:00:32;33.57;;;16.57;;
33266;SDS011;19638;49.080;11.896;2023-03-01T01:04:37;37.30;;;16.60;;
33266;SDS011;19638;49.080;11.896;2023-03-01T01:08:41;37.33;;;16.00;;
33266;SDS011;19638;49.080;11.896;2023-03-01T01:12:49;31.50;;;15.37;;
33266;SDS011;19638;49.080;11.896;2023-03-01T01:16:52;27.70;;;11.90;;
33266;SDS011;19638;49.080;11.896;2023-03-01T01:21:03;26.87;;;12.97;;
33266;SDS011;19638;49.080;11.896;2023-03-01T01:25:07;38.47;;;16.27;;
33266;SDS011;19638;49.080;11.896;2023-03-01T01:29:14;34.43;;;15.00;;
33266;SDS011;19638;49.080;11.896;2023-03-01T01:33:17;38.57;;;15.80;;
33266;SDS011;19638;49.080;11.896;2023-03-01T01:37:25;31.63;;;13.77;;
33266;SDS011;19638;49.080;11.896;2023-03-01T01:41:33;34.10;;;15.40;;
33266;SDS011;19638;49.080;11.896;2023-03-01T01:45:40;39.10;;;16.47;;
33266;SDS011;19638;49.080;11.896;2023-03-01T01:49:46;41.03;;;16.93;;
33266;SDS011;19638;49.080;11.896;2023-03-01T01:53:53;42.77;;;15.83;;
33266;SDS011;19638;49.080;11.896;2023-03-01T01:58:04;31.23;;;14.13;;
33266;SDS011;19638;49.080;11.896;2023-03-01T02:02:16;36.17;;;15.93;;
33266;SDS011;19638;49.080;11.896;2023-03-01T02:06:21;37.80;;;16.37;;
33266;SDS011;19638;49.080;11.896;2023-03-01T02:10:31;36.77;;;14.90;;
33266;SDS011;19638;49.080;11.896;2023-03-01T02:14:37;35.50;;;15.03;;
33266;SDS011;19638;49.080;11.896;2023-03-01T02:18:41;38.97;;;17.63;;
33266;SDS011;19638;49.080;11.896;2023-03-01T02:22:46;31.57;;;14.13;;
33266;SDS011;19638;49.080;11.896;2023-03-01T02:26:55;32.03;;;12.87;;
33266;SDS011;19638;49.080;11.896;2023-03-01T02:31:01;35.53;;;15.27;;
33266;SDS011;19638;49.080;11.896;2023-03-01T02:35:23;33.00;;;15.33;;
33266;SDS011;19638;49.080;11.896;2023-03-01T02:39:28;36.00;;;14.83;;
33266;SDS011;19638;49.080;11.896;2023-03-01T02:43:35;30.27;;;12.63;;
33266;SDS011;19638;49.080;11.896;2023-03-01T02:47:44;40.20;;;18.00;;
33266;SDS011;19638;49.080;11.896;2023-03-01T02:51:52;33.73;;;15.30;;
33266;SDS011;19638;49.080;11.896;2023-03-01T02:56:04;41.90;;;17.43;;
33266;SDS011;19638;49.080;11.896;2023-03-01T03:00:11;39.23;;;16.53;;
33266;SDS011;19638;49.080;11.896;2023-03-01T03:04:24;38.00;;;15.07;;
33266;SDS011;19638;49.080;11.896;2023-03-01T03:08:27;33.10;;;13.50;;
33266;SDS011;19638;49.080;11.896;2023-03-01T03:12:31;34.33;;;15.63;;
33266;SDS011;19638;49.080;11.896;2023-03-01T03:16:40;39.50;;;15.80;;
33266;SDS011;19638;49.080;11.896;2023-03-01T03:20:46;27.20;;;10.63;;
33266;SDS011;19638;49.080;11.896;2023-03-01T03:24:54;36.77;;;15.60;;
33266;SDS011;19638;49.080;11.896;2023-03-01T03:29:00;33.50;;;14.20;;
33266;SDS011;19638;49.080;11.896;2023-03-01T03:33:05;37.67;;;16.93;;
33266;SDS011;19638;49.080;11.896;2023-03-01T03:37:15;38.10;;;15.70;;
33266;SDS011;19638;49.080;11.896;2023-03-01T03:41:34;41.03;;;16.97;;
33266;SDS011;19638;49.080;11.896;2023-03-01T03:45:39;31.03;;;13.10;;
33266;SDS011;19638;49.080;11.896;2023-03-01T03:49:44;28.10;;;12.57;;
33266;SDS011;19638;49.080;11.896;2023-03-01T03:53:51;36.33;;;16.63;;
33266;SDS011;19638;49.080;11.896;2023-03-01T03:57:54;39.70;;;16.20;;
33266;SDS011;19638;49.080;11.896;2023-03-01T04:02:03;38.00;;;14.93;;
33266;SDS011;19638;49.080;11.896;2023-03-01T04:06:07;36.77;;;14.97;;
33266;SDS011;19638;49.080;11.896;2023-03-01T04:10:13;32.23;;;14.50;;
33266;SDS011;19638;49.080;11.896;2023-03-01T04:14:20;39.80;;;17.03;;
33266;SDS011;19638;49.080;11.896;2023-03-01T04:18:23;36.57;;;13.87;;
33266;SDS011;19638;49.080;11.896;2023-03-01T04:22:27;21.83;;;10.27;;
33266;SDS011;19638;49.080;11.896;2023-03-01T04:26:35;39.27;;;15.43;;
33266;SDS011;19638;49.080;11.896;2023-03-01T04:30:41;24.13;;;10.97;;
33266;SDS011;19638;49.080;11.896;2023-03-01T04:34:45;41.87;;;15.80;;
33266;SDS011;19638;49.080;11.896;2023-03-01T04:38:52;38.07;;;16.57;;
33266;SDS011;19638;49.080;11.896;2023-03-01T04:43:00;30.03;;;12.07;;
33266;SDS011;19638;49.080;11.896;2023-03-01T04:47:03;37.00;;;14.27;;
33266;SDS011;19638;49.080;11.896;2023-03-01T04:51:09;41.63;;;16.03;;
33266;SDS011;19638;49.080;11.896;2023-03-01T04:55:14;36.30;;;14.97;;
33266;SDS011;19638;49.080;11.896;2023-03-01T04:59:34;35.47;;;15.40;;
33266;SDS011;19638;49.080;11.896;2023-03-01T05:03:38;35.50;;;15.73;;
33266;SDS011;19638;49.080;11.896;2023-03-01T05:07:48;36.60;;;15.67;;
33266;SDS011;19638;49.080;11.896;2023-03-01T05:16:09;42.63;;;17.27;;
33266;SDS011;19638;49.080;11.896;2023-03-01T05:20:15;38.20;;;15.47;;
33266;SDS011;19638;49.080;11.896;2023-03-01T05:24:24;38.00;;;16.63;;
33266;SDS011;19638;49.080;11.896;2023-03-01T05:28:29;36.50;;;15.27;;
33266;SDS011;19638;49.080;11.896;2023-03-01T05:32:34;24.13;;;11.30;;
33266;SDS011;19638;49.080;11.896;2023-03-01T05:36:37;43.60;;;17.07;;
33266;SDS011;19638;49.080;11.896;2023-03-01T05:40:45;31.33;;;13.83;;
33266;SDS011;19638;49.080;11.896;2023-03-01T05:44:49;40.60;;;15.43;;
33266;SDS011;19638;49.080;11.896;2023-03-01T05:48:54;48.30;;;15.77;;
33266;SDS011;19638;49.080;11.896;2023-03-01T05:53:02;31.73;;;13.20;;
33266;SDS011;19638;49.080;11.896;2023-03-01T05:57:09;35.17;;;13.93;;
33266;SDS011;19638;49.080;11.896;2023-03-01T06:01:12;43.80;;;16.63;;
33266;SDS011;19638;49.080;11.896;2023-03-01T06:05:19;39.10;;;14.97;;
33266;SDS011;19638;49.080;11.896;2023-03-01T06:09:23;51.73;;;17.93;;
33266;SDS011;19638;49.080;11.896;2023-03-01T06:13:27;50.60;;;19.03;;
33266;SDS011;19638;49.080;11.896;2023-03-01T06:17:31;38.10;;;16.73;;
33266;SDS011;19638;49.080;11.896;2023-03-01T06:21:40;42.73;;;16.80;;
33266;SDS011;19638;49.080;11.896;2023-03-01T06:25:43;51.37;;;17.30;;
33266;SDS011;19638;49.080;11.896;2023-03-01T06:29:46;40.93;;;15.37;;
33266;SDS011;19638;49.080;11.896;2023-03-01T06:33:51;43.83;;;16.57;;
33266;SDS011;19638;49.080;11.896;2023-03-01T06:37:58;40.87;;;16.13;;
33266;SDS011;19638;49.080;11.896;2023-03-01T06:42:03;47.63;;;19.03;;
33266;SDS011;19638;49.080;11.896;2023-03-01T06:46:09;47.60;;;19.07;;
33266;SDS011;19638;49.080;11.896;2023-03-01T06:50:12;46.53;;;18.63;;
33266;SDS011;19638;49.080;11.896;2023-03-01T06:54:23;46.10;;;17.83;;
33266;SDS011;19638;49.080;11.896;2023-03-01T06:58:27;43.10;;;17.30;;
33266;SDS011;19638;49.080;11.896;2023-03-01T07:02:32;44.07;;;15.93;;
33266;SDS011;19638;49.080;11.896;2023-03-01T07:06:35;50.50;;;19.57;;
33266;SDS011;19638;49.080;11.896;2023-03-01T07:10:42;45.23;;;16.97;;
33266;SDS011;19638;49.080;11.896;2023-03-01T07:14:48;46.93;;;19.00;;
33266;SDS011;19638;49.080;11.896;2023-03-01T07:18:51;47.67;;;18.63;;
33266;SDS011;19638;49.080;11.896;2023-03-01T07:23:01;42.57;;;18.07;;
33266;SDS011;19638;49.080;11.896;2023-03-01T07:27:05;36.83;;;16.83;;
33266;SDS011;19638;49.080;11.896;2023-03-01T07:31:08;35.93;;;15.17;;
33266;SDS011;19638;49.080;11.896;2023-03-01T07:35:12;34.30;;;15.53;;
33266;SDS011;19638;49.080;11.896;2023-03-01T07:39:17;36.40;;;14.83;;
33266;SDS011;19638;49.080;11.896;2023-03-01T07:43:21;46.53;;;18.93;;
33266;SDS011;19638;49.080;11.896;2023-03-01T07:47:25;37.43;;;15.93;;
33266;SDS011;19638;49.080;11.896;2023-03-01T07:51:28;49.33;;;19.73;;
33266;SDS011;19638;49.080;11.896;2023-03-01T07:55:35;53.03;;;18.03;;
33266;SDS011;19638;49.080;11.896;2023-03-01T07:59:40;50.47;;;17.97;;
33266;SDS011;19638;49.080;11.896;2023-03-01T08:03:45;44.33;;;18.83;;
33266;SDS011;19638;49.080;11.896;2023-03-01T08:07:48;52.93;;;18.77;;
33266;SDS011;19638;49.080;11.896;2023-03-01T08:11:51;39.77;;;16.67;;
33266;SDS011;19638;49.080;11.896;2023-03-01T08:16:01;45.87;;;21.67;;
33266;SDS011;19638;49.080;11.896;2023-03-01T08:20:08;48.93;;;20.50;;
33266;SDS011;19638;49.080;11.896;2023-03-01T08:24:14;47.27;;;19.37;;
33266;SDS011;19638;49.080;11.896;2023-03-01T08:28:17;40.67;;;16.63;;
33266;SDS011;19638;49.080;11.896;2023-03-01T08:32:21;41.57;;;17.53;;
33266;SDS011;19638;49.080;11.896;2023-03-01T08:36:25;38.30;;;16.33;;
33266;SDS011;19638;49.080;11.896;2023-03-01T08:40:30;43.00;;;18.63;;
33266;SDS011;19638;49.080;11.896;2023-03-01T08:44:33;33.63;;;14.50;;
33266;SDS011;19638;49.080;11.896;2023-03-01T08:48:42;34.50;;;14.87;;
33266;SDS011;19638;49.080;11.896;2023-03-01T08:52:45;37.23;;;16.73;;
33266;SDS011;19638;49.080;11.896;2023-03-01T08:56:48;36.20;;;17.07;;
33266;SDS011;19638;49.080;11.896;2023-03-01T09:00:57;42.60;;;19.23;;
33266;SDS011;19638;49.080;11.896;2023-03-01T09:05:06;41.63;;;18.63;;
33266;SDS011;19638;49.080;11.896;2023-03-01T09:09:12;43.63;;;19.10;;
33266;SDS011;19638;49.080;11.896;2023-03-01T09:13:17;49.60;;;19.93;;
33266;SDS011;19638;49.080;11.896;2023-03-01T09:17:20;46.67;;;19.27;;
33266;SDS011;19638;49.080;11.896;2023-03-01T09:21:25;41.70;;;18.90;;
33266;SDS011;19638;49.080;11.896;2023-03-01T09:25:41;42.23;;;18.60;;
33266;SDS011;19638;49.080;11.896;2023-03-01T09:29:44;40.60;;;18.23;;
33266;SDS011;19638;49.080;11.896;2023-03-01T09:33:53;44.17;;;19.00;;
33266;SDS011;19638;49.080;11.896;2023-03-01T09:38:00;44.27;;;19.57;;
33266;SDS011;19638;49.080;11.896;2023-03-01T09:42:04;41.40;;;16.90;;
33266;SDS011;19638;49.080;11.896;2023-03-01T09:46:19;45.00;;;17.43;;
33266;SDS011;19638;49.080;11.896;2023-03-01T09:50:25;49.30;;;17.20;;
33266;SDS011;19638;49.080;11.896;2023-03-01T09:54:36;39.77;;;18.20;;
33266;SDS011;19638;49.080;11.896;2023-03-01T09:58:43;40.57;;;19.60;;
33266;SDS011;19638;49.080;11.896;2023-03-01T10:02:56;26.97;;;11.53;;
33266;SDS011;19638;49.080;11.896;2023-03-01T10:07:07;39.93;;;17.33;;
33266;SDS011;19638;49.080;11.896;2023-03-01T10:11:29;36.77;;;17.47;;
33266;SDS011;19638;49.080;11.896;2023-03-01T10:15:39;34.03;;;13.57;;
33266;SDS011;19638;49.080;11.896;2023-03-01T10:19:48;40.10;;;14.43;;
33266;SDS011;19638;49.080;11.896;2023-03-01T10:24:05;32.03;;;14.47;;
33266;SDS011;19638;49.080;11.896;2023-03-01T10:28:17;33.07;;;15.07;;
33266;SDS011;19638;49.080;11.896;2023-03-01T10:32:26;31.63;;;15.33;;
33266;SDS011;19638;49.080;11.896;2023-03-01T10:36:32;31.60;;;15.63;;
33266;SDS011;19638;49.080;11.896;2023-03-01T10:40:36;26.57;;;14.53;;
33266;SDS011;19638;49.080;11.896;2023-03-01T10:44:58;30.27;;;15.57;;
33266;SDS011;19638;49.080;11.896;2023-03-01T10:49:20;26.33;;;13.47;;
33266;SDS011;19638;49.080;11.896;2023-03-01T10:53:26;26.50;;;12.43;;
33266;SDS011;19638;49.080;11.896;2023-03-01T10:57:34;29.63;;;14.37;;
33266;SDS011;19638;49.080;11.896;2023-03-01T11:01:44;29.90;;;12.23;;
33266;SDS011;19638;49.080;11.896;2023-03-01T11:06:20;25.33;;;12.07;;
33266;SDS011;19638;49.080;11.896;2023-03-01T11:10:27;19.83;;;11.33;;
33266;SDS011;19638;49.080;11.896;2023-03-01T11:14:35;19.63;;;9.67;;
33266;SDS011;19638;49.080;11.896;2023-03-01T11:18:45;22.03;;;9.70;;
33266;SDS011;19638;49.080;11.896;2023-03-01T11:23:01;19.30;;;8.40;;
33266;SDS011;19638;49.080;11.896;2023-03-01T11:27:12;24.47;;;11.70;;
33266;SDS011;19638;49.080;11.896;2023-03-01T11:31:20;24.27;;;12.97;;
33266;SDS011;19638;49.080;11.896;2023-03-01T11:35:27;24.07;;;12.73;;
33266;SDS011;19638;49.080;11.896;2023-03-01T11:39:43;20.53;;;10.23;;
33266;SDS011;19638;49.080;11.896;2023-03-01T11:43:55;23.50;;;13.10;;
33266;SDS011;19638;49.080;11.896;2023-03-01T11:48:06;23.70;;;11.40;;
33266;SDS011;19638;49.080;11.896;2023-03-01T11:52:30;27.93;;;11.33;;
33266;SDS011;19638;49.080;11.896;2023-03-01T11:56:52;24.30;;;10.60;;
33266;SDS011;19638;49.080;11.896;2023-03-01T12:01:08;23.60;;;11.33;;
33266;SDS011;19638;49.080;11.896;2023-03-01T12:05:38;19.07;;;10.27;;
33266;SDS011;19638;49.080;11.896;2023-03-01T12:14:44;20.63;;;10.20;;
33266;SDS011;19638;49.080;11.896;2023-03-01T12:23:34;20.77;;;9.40;;
33266;SDS011;19638;49.080;11.896;2023-03-01T12:28:11;22.10;;;10.50;;
33266;SDS011;19638;49.080;11.896;2023-03-01T12:32:40;27.67;;;12.87;;
33266;SDS011;19638;49.080;11.896;2023-03-01T12:36:54;19.30;;;11.33;;
33266;SDS011;19638;49.080;11.896;2023-03-01T12:41:13;25.37;;;11.90;;
33266;SDS011;19638;49.080;11.896;2023-03-01T12:45:34;27.83;;;13.83;;
33266;SDS011;19638;49.080;11.896;2023-03-01T12:49:55;25.10;;;13.53;;
33266;SDS011;19638;49.080;11.896;2023-03-01T12:54:05;21.60;;;11.37;;
33266;SDS011;19638;49.080;11.896;2023-03-01T12:58:20;26.87;;;13.40;;
33266;SDS011;19638;49.080;11.896;2023-03-01T13:02:52;31.07;;;14.27;;
33266;SDS011;19638;49.080;11.896;2023-03-01T13:07:17;25.97;;;13.30;;
33266;SDS011;19638;49.080;11.896;2023-03-01T13:11:27;29.13;;;15.17;;
33266;SDS011;19638;49.080;11.896;2023-03-01T13:15:33;26.80;;;13.87;;
33266;SDS011;19638;49.080;11.896;2023-03-01T13:19:40;25.65;;;12.00;;
33266;SDS011;19638;49.080;11.896;2023-03-01T13:24:00;26.93;;;13.87;;
33266;SDS011;19638;49.080;11.896;2023-03-01T13:32:41;31.67;;;16.50;;
33266;SDS011;19638;49.080;11.896;2023-03-01T13:36:47;32.53;;;16.97;;
33266;SDS011;19638;49.080;11.896;2023-03-01T13:40:58;32.13;;;16.10;;
33266;SDS011;19638;49.080;11.896;2023-03-01T13:45:05;25.80;;;13.77;;
33266;SDS011;19638;49.080;11.896;2023-03-01T13:49:18;28.05;;;13.32;;
33266;SDS011;19638;49.080;11.896;2023-03-01T13:53:26;29.87;;;14.23;;
33266;SDS011;19638;49.080;11.896;2023-03-01T13:57:34;38.73;;;16.70;;
33266;SDS011;19638;49.080;11.896;2023-03-01T14:01:43;35.83;;;16.87;;
33266;SDS011;19638;49.080;11.896;2023-03-01T14:05:58;31.67;;;13.97;;
33266;SDS011;19638;49.080;11.896;2023-03-01T14:10:17;25.67;;;12.87;;
33266;SDS011;19638;49.080;11.896;2023-03-01T14:14:26;34.53;;;15.87;;
33266;SDS011;19638;49.080;11.896;2023-03-01T14:18:39;36.03;;;17.83;;
33266;SDS011;19638;49.080;11.896;2023-03-01T14:22:59;35.63;;;17.17;;
33266;SDS011;19638;49.080;11.896;2023-03-01T14:27:12;38.40;;;18.30;;
33266;SDS011;19638;49.080;11.896;2023-03-01T14:31:30;33.17;;;15.50;;
33266;SDS011;19638;49.080;11.896;2023-03-01T14:35:53;39.27;;;16.97;;
33266;SDS011;19638;49.080;11.896;2023-03-01T14:39:59;34.10;;;15.63;;
33266;SDS011;19638;49.080;11.896;2023-03-01T14:44:07;35.33;;;16.03;;
33266;SDS011;19638;49.080;11.896;2023-03-01T14:48:15;42.33;;;19.83;;
33266;SDS011;19638;49.080;11.896;2023-03-01T14:52:24;33.37;;;18.07;;
33266;SDS011;19638;49.080;11.896;2023-03-01T14:56:42;34.70;;;16.77;;
33266;SDS011;19638;49.080;11.896;2023-03-01T15:00:50;39.50;;;16.93;;
33266;SDS011;19638;49.080;11.896;2023-03-01T15:04:57;30.80;;;15.30;;
33266;SDS011;19638;49.080;11.896;2023-03-01T15:09:03;40.50;;;18.43;;
33266;SDS011;19638;49.080;11.896;2023-03-01T15:13:11;33.67;;;16.00;;
33266;SDS011;19638;49.080;11.896;2023-03-01T15:17:28;29.97;;;14.47;;
33266;SDS011;19638;49.080;11.896;2023-03-01T15:21:38;30.53;;;13.80;;
33266;SDS011;19638;49.080;11.896;2023-03-01T15:25:44;29.43;;;14.50;;
33266;SDS011;19638;49.080;11.896;2023-03-01T15:29:48;32.53;;;15.83;;
33266;SDS011;19638;49.080;11.896;2023-03-01T15:34:08;26.67;;;12.33;;
33266;SDS011;19638;49.080;11.896;2023-03-01T15:38:25;31.97;;;14.60;;
33266;SDS011;19638;49.080;11.896;2023-03-01T15:42:37;31.80;;;16.60;;
33266;SDS011;19638;49.080;11.896;2023-03-01T15:46:45;42.77;;;17.37;;
33266;SDS011;19638;49.080;11.896;2023-03-01T15:50:55;28.20;;;14.50;;
33266;SDS011;19638;49.080;11.896;2023-03-01T15:55:01;28.47;;;12.73;;
33266;SDS011;19638;49.080;11.896;2023-03-01T15:59:08;33.57;;;15.70;;
33266;SDS011;19638;49.080;11.896;2023-03-01T16:03:15;29.83;;;12.20;;
33266;SDS011;19638;49.080;11.896;2023-03-01T16:07:27;27.67;;;13.40;;
33266;SDS011;19638;49.080;11.896;2023-03-01T16:11:32;31.93;;;14.07;;
33266;SDS011;19638;49.080;11.896;2023-03-01T16:15:38;29.83;;;14.73;;
33266;SDS011;19638;49.080;11.896;2023-03-01T16:19:44;27.83;;;14.53;;
33266;SDS011;19638;49.080;11.896;2023-03-01T16:23:49;31.80;;;15.17;;
33266;SDS011;19638;49.080;11.896;2023-03-01T16:27:54;33.13;;;16.87;;
33266;SDS011;19638;49.080;11.896;2023-03-01T16:32:12;34.47;;;16.93;;
33266;SDS011;19638;49.080;11.896;2023-03-01T16:36:18;28.63;;;13.70;;
33266;SDS011;19638;49.080;11.896;2023-03-01T16:40:27;35.20;;;16.40;;
33266;SDS011;19638;49.080;11.896;2023-03-01T16:44:31;28.90;;;13.63;;
33266;SDS011;19638;49.080;11.896;2023-03-01T16:48:39;30.23;;;14.13;;
33266;SDS011;19638;49.080;11.896;2023-03-01T16:52:42;37.20;;;16.40;;
33266;SDS011;19638;49.080;11.896;2023-03-01T16:56:51;29.00;;;14.10;;
33266;SDS011;19638;49.080;11.896;2023-03-01T17:01:05;32.70;;;16.07;;
33266;SDS011;19638;49.080;11.896;2023-03-01T17:05:09;34.67;;;16.63;;
33266;SDS011;19638;49.080;11.896;2023-03-01T17:09:13;35.33;;;16.67;;
33266;SDS011;19638;49.080;11.896;2023-03-01T17:13:20;35.43;;;16.50;;
33266;SDS011;19638;49.080;11.896;2023-03-01T17:17:25;34.93;;;15.10;;
33266;SDS011;19638;49.080;11.896;2023-03-01T17:21:28;34.67;;;16.60;;
33266;SDS011;19638;49.080;11.896;2023-03-01T17:25:32;36.00;;;17.80;;
33266;SDS011;19638;49.080;11.896;2023-03-01T17:29:36;35.63;;;16.80;;
33266;SDS011;19638;49.080;11.896;2023-03-01T17:33:41;33.83;;;16.10;;
33266;SDS011;19638;49.080;11.896;2023-03-01T17:37:44;35.43;;;15.57;;
33266;SDS011;19638;49.080;11.896;2023-03-01T17:41:47;36.23;;;17.47;;
33266;SDS011;19638;49.080;11.896;2023-03-01T17:45:55;38.00;;;18.10;;
33266;SDS011;19638;49.080;11.896;2023-03-01T17:50:03;36.80;;;16.97;;
33266;SDS011;19638;49.080;11.896;2023-03-01T17:54:06;34.87;;;16.73;;
33266;SDS011;19638;49.080;11.896;2023-03-01T17:58:11;40.23;;;16.83;;
33266;SDS011;19638;49.080;11.896;2023-03-01T18:02:19;42.10;;;18.27;;
33266;SDS011;19638;49.080;11.896;2023-03-01T18:06:23;38.47;;;16.73;;
33266;SDS011;19638;49.080;11.896;2023-03-01T18:10:28;38.97;;;16.40;;
33266;SDS011;19638;49.080;11.896;2023-03-01T18:14:32;37.27;;;14.90;;
33266;SDS011;19638;49.080;11.896;2023-03-01T18:18:39;33.53;;;15.60;;
33266;SDS011;19638;49.080;11.896;2023-03-01T18:22:43;35.63;;;17.20;;
33266;SDS011;19638;49.080;11.896;2023-03-01T18:26:49;42.10;;;17.27;;
33266;SDS011;19638;49.080;11.896;2023-03-01T18:30:57;33.47;;;14.53;;
33266;SDS011;19638;49.080;11.896;2023-03-01T18:35:02;35.73;;;16.60;;
33266;SDS011;19638;49.080;11.896;2023-03-01T18:39:06;40.17;;;17.13;;
33266;SDS011;19638;49.080;11.896;2023-03-01T18:43:18;29.87;;;15.20;;
33266;SDS011;19638;49.080;11.896;2023-03-01T18:47:21;35.23;;;16.53;;
33266;SDS011;19638;49.080;11.896;2023-03-01T18:51:27;35.13;;;15.67;;
33266;SDS011;19638;49.080;11.896;2023-03-01T18:55:34;32.63;;;15.10;;
33266;SDS011;19638;49.080;11.896;2023-03-01T18:59:39;29.27;;;13.73;;
33266;SDS011;19638;49.080;11.896;2023-03-01T19:03:42;26.77;;;13.37;;
33266;SDS011;19638;49.080;11.896;2023-03-01T19:07:47;24.07;;;10.93;;
33266;SDS011;19638;49.080;11.896;2023-03-01T19:11:55;32.70;;;14.07;;
33266;SDS011;19638;49.080;11.896;2023-03-01T19:16:01;29.80;;;13.40;;
33266;SDS011;19638;49.080;11.896;2023-03-01T19:20:07;31.83;;;14.47;;
33266;SDS011;19638;49.080;11.896;2023-03-01T19:24:14;32.37;;;14.03;;
33266;SDS011;19638;49.080;11.896;2023-03-01T19:28:17;27.90;;;13.13;;
33266;SDS011;19638;49.080;11.896;2023-03-01T19:32:20;36.60;;;14.57;;
33266;SDS011;19638;49.080;11.896;2023-03-01T19:36:26;27.13;;;12.20;;
33266;SDS011;19638;49.080;11.896;2023-03-01T19:44:42;31.27;;;14.27;;
33266;SDS011;19638;49.080;11.896;2023-03-01T19:48:46;29.73;;;12.40;;
33266;SDS011;19638;49.080;11.896;2023-03-01T19:52:55;30.57;;;14.27;;
33266;SDS011;19638;49.080;11.896;2023-03-01T19:57:00;26.10;;;10.70;;
33266;SDS011;19638;49.080;11.896;2023-03-01T20:01:15;31.87;;;14.17;;
33266;SDS011;19638;49.080;11.896;2023-03-01T20:05:21;32.33;;;13.63;;
33266;SDS011;19638;49.080;11.896;2023-03-01T20:09:27;31.43;;;12.53;;
33266;SDS011;19638;49.080;11.896;2023-03-01T20:13:32;27.00;;;11.57;;
33266;SDS011;19638;49.080;11.896;2023-03-01T20:17:37;28.53;;;12.53;;
33266;SDS011;19638;49.080;11.896;2023-03-01T20:21:40;32.67;;;14.37;;
33266;SDS011;19638;49.080;11.896;2023-03-01T20:25:46;27.37;;;13.20;;
33266;SDS011;19638;49.080;11.896;2023-03-01T20:29:53;26.80;;;13.23;;
33266;SDS011;19638;49.080;11.896;2023-03-01T20:33:59;31.07;;;13.30;;
33266;SDS011;19638;49.080;11.896;2023-03-01T20:38:02;32.23;;;13.10;;
33266;SDS011;19638;49.080;11.896;2023-03-01T20:42:06;28.53;;;14.27;;
33266;SDS011;19638;49.080;11.896;2023-03-01T20:46:11;31.97;;;14.00;;
33266;SDS011;19638;49.080;11.896;2023-03-01T20:50:15;25.63;;;12.20;;
33266;SDS011;19638;49.080;11.896;2023-03-01T20:54:20;30.30;;;13.97;;
33266;SDS011;19638;49.080;11.896;2023-03-01T20:58:24;35.93;;;13.30;;
33266;SDS011;19638;49.080;11.896;2023-03-01T21:02:29;30.93;;;12.97;;
33266;SDS011;19638;49.080;11.896;2023-03-01T21:06:32;30.70;;;13.37;;
33266;SDS011;19638;49.080;11.896;2023-03-01T21:10:48;32.13;;;14.03;;
33266;SDS011;19638;49.080;11.896;2023-03-01T21:14:52;31.97;;;15.00;;
33266;SDS011;19638;49.080;11.896;2023-03-01T21:19:00;36.67;;;14.93;;
33266;SDS011;19638;49.080;11.896;2023-03-01T21:23:03;37.30;;;15.90;;
33266;SDS011;19638;49.080;11.896;2023-03-01T21:27:09;40.37;;;17.23;;
33266;SDS011;19638;49.080;11.896;2023-03-01T21:31:14;41.53;;;15.47;;
33266;SDS011;19638;49.080;11.896;2023-03-01T21:35:22;32.93;;;14.70;;
33266;SDS011;19638;49.080;11.896;2023-03-01T21:39:25;39.03;;;16.03;;
33266;SDS011;19638;49.080;11.896;2023-03-01T21:43:31;37.23;;;16.13;;
33266;SDS011;19638;49.080;11.896;2023-03-01T21:47:34;34.20;;;13.47;;
33266;SDS011;19638;49.080;11.896;2023-03-01T21:51:41;37.30;;;15.87;;
33266;SDS011;19638;49.080;11.896;2023-03-01T21:55:50;40.17;;;15.83;;
33266;SDS011;19638;49.080;11.896;2023-03-01T21:59:53;37.83;;;14.97;;
33266;SDS011;19638;49.080;11.896;2023-03-01T22:03:58;26.17;;;12.03;;
33266;SDS011;19638;49.080;11.896;2023-03-01T22:08:06;37.27;;;15.37;;
33266;SDS011;19638;49.080;11.896;2023-03-01T22:12:10;34.63;;;15.60;;
33266;SDS011;19638;49.080;11.896;2023-03-01T22:16:13;34.77;;;14.67;;
33266;SDS011;19638;49.080;11.896;2023-03-01T22:20:18;41.00;;;17.67;;
33266;SDS011;19638;49.080;11.896;2023-03-01T22:24:27;44.87;;;17.17;;
33266;SDS011;19638;49.080;11.896;2023-03-01T22:28:30;37.13;;;15.43;;
33266;SDS011;19638;49.080;11.896;2023-03-01T22:32:36;38.97;;;17.23;;
33266;SDS011;19638;49.080;11.896;2023-03-01T22:36:43;44.63;;;16.80;;
33266;SDS011;19638;49.080;11.896;2023-03-01T22:40:56;38.83;;;16.70;;
33266;SDS011;19638;49.080;11.896;2023-03-01T22:45:01;33.43;;;14.40;;
33266;SDS011;19638;49.080;11.896;2023-03-01T22:49:05;38.57;;;17.07;;
33266;SDS011;19638;49.080;11.896;2023-03-01T22:53:10;34.10;;;15.57;;
33266;SDS011;19638;49.080;11.896;2023-03-01T22:57:16;38.13;;;17.30;;
33266;SDS011;19638;49.080;11.896;2023-03-01T23:01:20;37.00;;;16.37;;
33266;SDS011;19638;49.080;11.896;2023-03-01T23:05:24;41.33;;;17.73;;
33266;SDS011;19638;49.080;11.896;2023-03-01T23:09:29;37.40;;;17.27;;
33266;SDS011;19638;49.080;11.896;2023-03-01T23:13:36;36.33;;;15.30;;
33266;SDS011;19638;49.080;11.896;2023-03-01T23:17:42;37.97;;;15.80;;
33266;SDS011;19638;49.080;11.896;2023-03-01T23:21:45;37.23;;;14.50;;
33266;SDS011;19638;49.080;11.896;2023-03-01T23:25:55;43.93;;;15.83;;
33266;SDS011;19638;49.080;11.896;2023-03-01T23:30:00;41.63;;;17.77;;
33266;SDS011;19638;49.080;11.896;2023-03-01T23:34:09;27.07;;;10.70;;
33266;SDS011;19638;49.080;11.896;2023-03-01T23:38:13;45.43;;;17.73;;
33266;SDS011;19638;49.080;11.896;2023-03-01T23:42:19;30.77;;;12.97;;
33266;SDS011;19638;49.080;11.896;2023-03-01T23:46:24;38.50;;;16.40;;
33266;SDS011;19638;49.080;11.896;2023-03-01T23:50:30;35.40;;;16.00;;
33266;SDS011;19638;49.080;11.896;2023-03-01T23:54:33;43.90;;;16.93;;
33266;SDS011;19638;49.080;11.896;2023-03-01T23:58:38;22.30;;;10.77;;
